Airfield :







YOU CAN JOIN US ON...

 
LOGIN :

Register | Disclaimer

   EN    FR    IT 

 









Legend :    VFR   Marginal VFR   IFR   Intensive IFR   Very Intensive IFR
Visi :
Ceiling :
>= 8 km
>= 3000ft
5 to 8 km
1000 to 3000 ft
1500m to 5 km
500 to 1000 ft
800 to 1500m
200 to 500 ft
< 800m
< 200 ft
Symbols :   Thunderstorms  Fog  Heavy snow  Heavy precipitations  Wind > 20 kt







- Airport Elevation : 328 ft


KGFL - Floyd Bennett Memorial

CURRENT METAR :
  • 210421Z AUTO 00000KT 1 3/4SM BR CLR 09/08 A3018 RMK AO2 T00890083

EXPIRED METARs :
  • 210353Z AUTO 00000KT 10SM CLR 10/09 A3016 RMK AO2 SLP215 T01000089
  • 210338Z AUTO 00000KT 10SM CLR 11/09 A3016 RMK AO2 T01060094
  • 210331Z AUTO 00000KT 2 1/2SM BR CLR 10/09 A3016 RMK AO2 T01000094
  • 210323Z AUTO 00000KT 1/2SM FG CLR 09/09 A3016 RMK AO2 T00940089
  • 210305Z AUTO 00000KT 3SM BR CLR 11/10 A3017 RMK AO2 T01110100
  • 210253Z AUTO 00000KT 1SM BR CLR 10/09 A3017 RMK AO2 SLP219 T01000094 51008
  • 210224Z AUTO 00000KT 4SM BR CLR 11/10 A3017 RMK AO2 T01060100
  • 210158Z AUTO 00000KT 1 3/4SM BR CLR 11/10 A3016 RMK AO2 VIS 3/4V5 T01110100
  • 210153Z AUTO 00000KT 6SM BR CLR 12/11 A3016 RMK AO2 SLP217 T01170106
  • 210136Z AUTO 00000KT 3SM BR CLR 12/11 A3017 RMK AO2 T01170111

TAF KGFL
Valid from the 21 at 02:00 until the 22 at 00:00 UTC


210152Z 2102/2124 VRB03KT P6SM SCT150 SCT250
TEMPO 2102/2106 1SM BR SCT002
FM210600 00000KT 2SM BR FEW150
TEMPO 2108/2112 1/2SM FG VV002
FM211300 00000KT P6SM FEW150
No reported NOTAMs for that airfield.



MET'MAP, your aeronautical weather chart ! - Copyright ORBIFLY December 2007 - Disclaimer

ORBIFLY MET'MAP TEAM :

Programming & Development : Alexandra Zaïnal
Concept & Development : Baudouin d'Aumeries
Co-Development & Prog : Marc-Olivier Méhu
Technical & hardware support : Manuel Goepfert

Contact : metmap@orbifly.com




SOURCES & CREDITS :

   NOAA